Time;durP1;ratioP1;P1;durP2;ratioP2;P2;SDS_P1;SDS_P2;PMS_P1;PMS_P2;Temp;Humidity;BMP_temperature;BMP_pressure;BME280_temperature;BME280_humidity;BME280_pressure;Samples;Min_cycle;Max_cycle;Signal;HPM_P1;HPM_P2
2023/03/04 00:01:44;;;;;;;14.75;1.05;;;5.90;99.90;;;;;;4974952;28;21381;-64
2023/03/04 00:04:10;;;;;;;16.30;1.27;;;5.90;99.90;;;;;;4975195;28;20045;-65
2023/03/04 00:06:36;;;;;;;17.17;1.35;;;5.90;99.90;;;;;;4992683;28;20351;-63
2023/03/04 00:09:03;;;;;;;15.55;1.88;;;5.90;99.90;;;;;;4993212;28;20038;-62
2023/03/04 00:11:30;;;;;;;13.48;0.90;;;5.90;99.90;;;;;;4976083;28;20555;-62
2023/03/04 00:13:56;;;;;;;14.95;1.00;;;6.00;99.90;;;;;;4978081;28;20117;-62
2023/03/04 00:16:26;;;;;;;12.02;0.77;;;6.00;99.90;;;;;;5006931;28;20042;-63
2023/03/04 00:18:52;;;;;;;13.88;0.93;;;5.90;99.90;;;;;;4978415;28;20058;-63
2023/03/04 00:21:18;;;;;;;14.27;1.23;;;6.00;99.90;;;;;;4989870;28;20084;-64
2023/03/04 00:23:44;;;;;;;15.33;0.93;;;5.90;99.90;;;;;;4949543;28;1125695;-64
2023/03/04 00:26:12;;;;;;;17.33;1.10;;;5.90;99.90;;;;;;4974070;28;20289;-65
2023/03/04 00:28:38;;;;;;;13.93;0.85;;;5.90;99.90;;;;;;5007331;28;20546;-65
2023/03/04 00:31:05;;;;;;;11.30;1.38;;;5.90;99.90;;;;;;4989238;28;20530;-64
2023/03/04 00:33:31;;;;;;;17.08;1.73;;;5.90;99.90;;;;;;4990984;28;20372;-64
2023/03/04 00:35:57;;;;;;;18.33;1.63;;;5.90;99.90;;;;;;4976277;28;20354;-64
2023/03/04 00:38:22;;;;;;;17.45;1.00;;;5.90;99.90;;;;;;4976107;28;20046;-64
2023/03/04 00:40:48;;;;;;;25.13;1.98;;;5.80;99.90;;;;;;4976015;28;20712;-64
2023/03/04 00:43:14;;;;;;;17.05;1.33;;;5.80;99.90;;;;;;4991971;28;20790;-64
2023/03/04 00:45:39;;;;;;;20.35;1.85;;;5.80;99.90;;;;;;4973178;28;20301;-64
2023/03/04 00:48:05;;;;;;;17.13;1.27;;;5.80;99.90;;;;;;4942580;28;20195;-64
2023/03/04 00:50:31;;;;;;;17.55;1.98;;;5.80;99.90;;;;;;5006538;28;20546;-66
2023/03/04 00:52:56;;;;;;;21.90;2.03;;;5.70;99.90;;;;;;4991660;28;20408;-65
2023/03/04 00:55:22;;;;;;;26.33;2.88;;;5.70;99.90;;;;;;4973334;28;20042;-66
2023/03/04 00:57:48;;;;;;;22.08;2.20;;;5.70;99.90;;;;;;4974840;28;20112;-64
2023/03/04 01:00:14;;;;;;;25.65;2.17;;;5.60;99.90;;;;;;4959196;28;20038;-62
2023/03/04 01:02:40;;;;;;;17.98;1.23;;;5.60;99.90;;;;;;4976428;28;20038;-63
2023/03/04 01:05:06;;;;;;;19.23;1.55;;;5.70;99.90;;;;;;5006564;28;20507;-63
2023/03/04 01:07:32;;;;;;;20.15;1.75;;;5.70;99.90;;;;;;4974464;28;20337;-64
2023/03/04 01:09:58;;;;;;;17.40;1.48;;;5.70;99.90;;;;;;4991370;28;20072;-64
2023/03/04 01:12:24;;;;;;;21.55;1.63;;;5.70;99.90;;;;;;4989744;28;20485;-64
2023/03/04 01:14:50;;;;;;;15.68;1.40;;;5.70;99.90;;;;;;4974167;28;20711;-62
2023/03/04 01:17:15;;;;;;;12.52;1.00;;;5.70;99.90;;;;;;4977967;28;20304;-62
2023/03/04 01:19:41;;;;;;;15.27;1.23;;;5.70;99.90;;;;;;4990216;28;20400;-63
2023/03/04 01:22:07;;;;;;;16.45;1.08;;;5.70;99.90;;;;;;4974494;28;20054;-62
2023/03/04 01:24:32;;;;;;;12.63;1.25;;;5.70;99.90;;;;;;4991339;28;20046;-62
2023/03/04 01:26:58;;;;;;;15.50;1.17;;;5.70;99.90;;;;;;4974947;28;20057;-63
2023/03/04 01:29:24;;;;;;;14.30;0.90;;;5.70;99.90;;;;;;4976804;28;20046;-63
2023/03/04 01:31:50;;;;;;;11.23;1.10;;;5.70;99.90;;;;;;4974496;28;20121;-62
2023/03/04 01:34:16;;;;;;;16.10;1.60;;;5.70;99.90;;;;;;4971917;28;20076;-62
2023/03/04 01:36:42;;;;;;;13.38;0.93;;;5.70;99.90;;;;;;4975343;28;20042;-63
2023/03/04 01:39:08;;;;;;;7.65;0.77;;;5.70;99.90;;;;;;5008347;28;20034;-63
2023/03/04 01:41:33;;;;;;;14.18;1.05;;;5.80;99.90;;;;;;4973856;28;20050;-64
2023/03/04 01:44:01;;;;;;;11.85;0.77;;;5.70;99.90;;;;;;4974384;28;20108;-64
2023/03/04 01:46:28;;;;;;;14.05;1.00;;;5.70;99.90;;;;;;4958099;28;20042;-65
2023/03/04 01:48:54;;;;;;;12.43;0.50;;;5.80;99.90;;;;;;4974035;28;20050;-64
2023/03/04 01:51:20;;;;;;;14.55;1.05;;;5.80;99.90;;;;;;4954641;28;20050;-65
2023/03/04 01:53:53;;;;;;;12.90;0.98;;;5.70;99.90;;;;;;5006770;28;20051;-62
2023/03/04 01:56:29;;;;;;;12.95;0.80;;;5.70;99.90;;;;;;4989704;28;20109;-62
2023/03/04 01:59:22;;;;;;;15.38;1.50;;;5.70;99.90;;;;;;4976292;28;20034;-61
2023/03/04 02:01:57;;;;;;;15.65;1.02;;;5.70;99.90;;;;;;4973557;28;20079;-62
2023/03/04 02:04:25;;;;;;;19.23;1.20;;;5.70;99.90;;;;;;5006841;28;20333;-63
2023/03/04 02:06:51;;;;;;;14.27;0.98;;;5.70;99.90;;;;;;4972613;28;20042;-64
2023/03/04 02:09:18;;;;;;;13.30;1.00;;;5.70;99.90;;;;;;4978186;28;20046;-63
2023/03/04 02:11:45;;;;;;;19.13;1.88;;;5.70;99.90;;;;;;4975342;28;20531;-63
2023/03/04 02:14:12;;;;;;;13.70;1.42;;;5.70;99.90;;;;;;4976853;28;20049;-64
2023/03/04 02:16:38;;;;;;;8.63;0.90;;;5.80;99.90;;;;;;4975577;28;20605;-63
2023/03/04 02:19:11;;;;;;;11.98;0.90;;;5.80;99.90;;;;;;4975276;28;20078;-64
2023/03/04 02:21:37;;;;;;;14.10;1.00;;;5.80;99.90;;;;;;4956676;28;20042;-65
2023/03/04 02:24:23;;;;;;;13.18;1.17;;;5.80;99.90;;;;;;4992408;28;20139;-64
2023/03/04 02:26:49;;;;;;;10.75;0.77;;;5.70;99.90;;;;;;4976130;28;20034;-64
2023/03/04 02:29:16;;;;;;;13.65;1.05;;;5.70;99.90;;;;;;4973565;28;20158;-64
2023/03/04 02:31:49;;;;;;;21.55;1.25;;;5.70;99.90;;;;;;4990316;28;20045;-64
2023/03/04 02:34:18;;;;;;;12.15;1.23;;;5.70;99.90;;;;;;4975629;28;20128;-64
2023/03/04 02:36:45;;;;;;;11.95;0.82;;;5.70;99.90;;;;;;4975562;28;20250;-64
2023/03/04 02:39:29;;;;;;;10.85;0.82;;;5.70;99.90;;;;;;5005035;28;20038;-64
2023/03/04 02:41:55;;;;;;;;;;;5.70;99.90;;;;;;4974828;28;20291;-63
2023/03/04 02:44:25;;;;;;;7.80;0.60;;;5.70;99.90;;;;;;5006449;28;19921;-63
2023/03/04 02:46:52;;;;;;;8.07;0.65;;;5.70;99.90;;;;;;4973800;28;20508;-63
2023/03/04 02:49:19;;;;;;;11.73;0.80;;;5.70;99.90;;;;;;4974847;28;20042;-62
2023/03/04 02:51:45;;;;;;;13.60;0.90;;;5.70;99.90;;;;;;4974164;28;20042;-63
2023/03/04 02:54:19;;;;;;;8.02;0.50;;;5.70;99.90;;;;;;4972985;28;20045;-63
2023/03/04 02:56:50;;;;;;;12.80;0.70;;;5.70;99.90;;;;;;4979848;28;20563;-63
2023/03/04 02:59:17;;;;;;;12.93;0.68;;;5.60;99.90;;;;;;4979044;28;20805;-62
2023/03/04 03:01:43;;;;;;;12.73;0.80;;;5.60;99.90;;;;;;4978608;28;20373;-63
2023/03/04 03:04:09;;;;;;;12.38;1.00;;;5.70;99.90;;;;;;4979797;28;20065;-62
2023/03/04 03:06:35;;;;;;;9.93;0.55;;;5.70;99.90;;;;;;4993057;28;20504;-63
2023/03/04 03:09:01;;;;;;;9.30;0.70;;;5.70;99.90;;;;;;4978722;28;20038;-62
2023/03/04 03:11:27;;;;;;;9.68;1.00;;;5.70;99.90;;;;;;4992990;28;20057;-62
2023/03/04 03:13:52;;;;;;;10.60;0.90;;;5.70;99.90;;;;;;4976701;28;20049;-63
2023/03/04 03:16:18;;;;;;;10.20;0.80;;;5.70;99.90;;;;;;4978088;28;20042;-62
2023/03/04 03:18:44;;;;;;;11.77;0.80;;;5.70;99.90;;;;;;4979855;28;20030;-62
2023/03/04 03:21:09;;;;;;;7.90;0.45;;;5.70;99.90;;;;;;5011202;28;20488;-62
2023/03/04 03:23:35;;;;;;;19.05;1.33;;;5.70;99.90;;;;;;4978111;28;20142;-63
2023/03/04 03:26:01;;;;;;;11.13;0.80;;;5.70;99.90;;;;;;5009771;28;20053;-63
2023/03/04 03:28:27;;;;;;;10.32;0.70;;;5.70;99.90;;;;;;5011440;28;20045;-63
2023/03/04 03:30:53;;;;;;;14.40;1.45;;;5.70;99.90;;;;;;4978398;28;20108;-63
2023/03/04 03:33:19;;;;;;;17.48;1.40;;;5.70;99.90;;;;;;4979185;28;20137;-64
2023/03/04 03:35:45;;;;;;;10.07;0.98;;;5.70;99.90;;;;;;4975403;28;20147;-64
2023/03/04 03:38:11;;;;;;;11.68;0.65;;;5.70;99.90;;;;;;5007967;28;20363;-63
2023/03/04 03:40:36;;;;;;;14.40;0.98;;;5.70;99.90;;;;;;4977355;28;20046;-65
2023/03/04 03:43:02;;;;;;;16.70;0.90;;;5.70;99.90;;;;;;4992490;28;20158;-63
2023/03/04 03:45:28;;;;;;;11.57;0.80;;;5.70;99.90;;;;;;4992942;28;20053;-65
2023/03/04 03:47:53;;;;;;;14.18;1.17;;;5.70;99.90;;;;;;4977779;28;20038;-63
2023/03/04 03:50:19;;;;;;;8.63;0.73;;;5.70;99.90;;;;;;4977251;28;20106;-63
2023/03/04 03:52:45;;;;;;;11.00;1.00;;;5.70;99.90;;;;;;4976868;28;20418;-63
2023/03/04 03:55:11;;;;;;;11.70;0.80;;;5.70;99.90;;;;;;4993605;28;20043;-63
2023/03/04 03:57:36;;;;;;;13.18;0.70;;;5.70;99.90;;;;;;4977326;28;20065;-64
2023/03/04 04:00:04;;;;;;;14.50;0.80;;;5.70;99.90;;;;;;4959704;28;20088;-65
2023/03/04 04:02:29;;;;;;;8.77;0.52;;;5.70;99.90;;;;;;5008436;28;20054;-63
2023/03/04 04:04:55;;;;;;;11.68;0.60;;;5.70;99.90;;;;;;4977615;28;20073;-63
2023/03/04 04:07:21;;;;;;;11.80;0.57;;;5.70;99.90;;;;;;4977093;28;20638;-64
2023/03/04 04:09:47;;;;;;;13.13;0.60;;;5.70;99.90;;;;;;4998748;28;20354;-64
2023/03/04 04:12:14;;;;;;;8.60;0.60;;;5.80;99.90;;;;;;4975646;28;20046;-63
2023/03/04 04:14:40;;;;;;;8.85;0.73;;;5.80;99.90;;;;;;4993940;28;20073;-64
2023/03/04 04:17:06;;;;;;;10.57;0.70;;;5.80;99.90;;;;;;4958244;28;20393;-65
2023/03/04 04:19:31;;;;;;;12.07;0.50;;;5.80;99.90;;;;;;4975776;28;20253;-64
2023/03/04 04:21:57;;;;;;;12.93;0.47;;;5.80;99.90;;;;;;4958825;28;20042;-63
2023/03/04 04:24:23;;;;;;;10.75;0.52;;;5.80;99.90;;;;;;4977040;28;20095;-65
2023/03/04 04:26:48;;;;;;;9.55;0.57;;;5.80;99.90;;;;;;4991523;28;20034;-65
2023/03/04 04:29:15;;;;;;;4.68;0.60;;;5.80;99.90;;;;;;4976772;28;20038;-65
2023/03/04 04:31:41;;;;;;;10.63;0.85;;;5.70;1.00;;;;;;4976178;28;20077;-64
2023/03/04 04:34:07;;;;;;;10.45;0.60;;;5.70;1.00;;;;;;4977386;28;20115;-62
2023/03/04 04:36:33;;;;;;;12.80;0.70;;;5.60;84.50;;;;;;4975195;28;20163;-62
2023/03/04 04:38:59;;;;;;;13.27;0.88;;;5.50;99.90;;;;;;4960996;28;20038;-64
2023/03/04 04:41:28;;;;;;;9.18;0.57;;;5.40;99.90;;;;;;4992146;28;20054;-63
2023/03/04 04:43:54;;;;;;;12.45;1.00;;;5.40;99.90;;;;;;4975040;28;20061;-63
2023/03/04 04:46:20;;;;;;;10.07;1.27;;;5.40;99.90;;;;;;4991297;28;20423;-63
2023/03/04 04:48:46;;;;;;;16.33;1.20;;;5.40;99.90;;;;;;4977462;28;20121;-63
2023/03/04 04:51:12;;;;;;;13.40;1.10;;;5.40;99.90;;;;;;4976886;28;20038;-63
2023/03/04 04:53:38;;;;;;;17.15;1.17;;;5.50;99.90;;;;;;4978393;28;20097;-62
2023/03/04 04:56:15;;;;;;;12.70;0.98;;;5.40;99.90;;;;;;4976667;28;21401;-64
2023/03/04 04:58:42;;;;;;;12.68;0.90;;;5.40;99.90;;;;;;4991347;28;20129;-63
2023/03/04 05:01:09;;;;;;;17.15;0.93;;;5.50;99.90;;;;;;4992706;28;20651;-63
2023/03/04 05:03:36;;;;;;;15.48;1.35;;;5.50;99.90;;;;;;4974823;28;20050;-62
2023/03/04 05:06:04;;;;;;;15.45;1.00;;;5.40;99.90;;;;;;4977322;28;20706;-64
2023/03/04 05:08:30;;;;;;;9.70;0.60;;;5.40;99.90;;;;;;5009264;28;20046;-62
2023/03/04 05:10:56;;;;;;;14.95;0.60;;;5.40;1.00;;;;;;5006756;28;20091;-62
2023/03/04 05:13:22;;;;;;;11.38;0.68;;;5.40;99.90;;;;;;4959611;28;20416;-62
2023/03/04 05:15:54;;;;;;;14.20;1.30;;;5.30;1.00;;;;;;4989849;28;20035;-63
2023/03/04 05:18:22;;;;;;;14.75;0.85;;;5.40;1.00;;;;;;4992473;28;20101;-63
2023/03/04 05:20:52;;;;;;;8.85;0.70;;;5.30;1.00;;;;;;4976563;28;20278;-61
2023/03/04 05:23:18;;;;;;;15.73;0.90;;;5.40;99.90;;;;;;4977977;28;20640;-62
2023/03/04 05:25:44;;;;;;;9.48;0.50;;;5.40;99.90;;;;;;5009181;28;20034;-63
2023/03/04 05:28:11;;;;;;;7.40;0.80;;;5.50;99.90;;;;;;4995057;28;20038;-62
2023/03/04 05:30:41;;;;;;;10.57;0.60;;;5.40;1.00;;;;;;4995015;28;20409;-64
2023/03/04 05:33:07;;;;;;;16.08;0.57;;;5.40;1.00;;;;;;4975084;28;20042;-63
2023/03/04 05:35:37;;;;;;;17.60;0.70;;;5.30;1.00;;;;;;4974966;28;20466;-64
2023/03/04 05:38:09;;;;;;;15.85;0.90;;;5.40;1.00;;;;;;4969841;28;20181;-64
2023/03/04 05:40:35;;;;;;;12.32;0.60;;;5.40;1.00;;;;;;4993599;28;21043;-64
2023/03/04 05:43:01;;;;;;;15.05;1.25;;;5.40;1.00;;;;;;4975974;28;20409;-64
2023/03/04 05:45:26;;;;;;;18.80;0.85;;;5.30;1.00;;;;;;4958002;28;20050;-64
2023/03/04 05:47:53;;;;;;;13.85;1.02;;;5.20;1.00;;;;;;5006301;28;20065;-66
2023/03/04 05:50:20;;;;;;;15.13;1.30;;;5.30;1.00;;;;;;4991867;28;20242;-63
2023/03/04 05:52:46;;;;;;;18.58;0.93;;;5.30;24.20;;;;;;4973278;28;20096;-64
2023/03/04 05:55:12;;;;;;;12.43;0.95;;;5.30;63.50;;;;;;4973504;28;20038;-62
2023/03/04 05:57:38;;;;;;;12.63;0.55;;;5.30;99.90;;;;;;4958365;28;20042;-63
2023/03/04 06:00:08;;;;;;;12.68;0.60;;;5.30;99.90;;;;;;4994514;28;20038;-64
2023/03/04 06:02:35;;;;;;;10.02;0.43;;;5.30;99.90;;;;;;4958542;28;20084;-63
2023/03/04 06:05:01;;;;;;;10.35;0.70;;;5.30;99.90;;;;;;5005955;28;20811;-63
2023/03/04 06:07:26;;;;;;;10.25;0.93;;;5.30;99.90;;;;;;4989578;28;20495;-62
2023/03/04 06:09:52;;;;;;;10.10;0.70;;;5.30;99.90;;;;;;5007959;28;20046;-63
2023/03/04 06:12:18;;;;;;;11.77;0.77;;;5.30;99.90;;;;;;4976421;28;20050;-64
2023/03/04 06:14:44;;;;;;;11.98;0.85;;;5.40;99.90;;;;;;4975803;28;20038;-64
2023/03/04 06:17:09;;;;;;;11.98;0.57;;;5.40;99.90;;;;;;5006531;28;20499;-64
2023/03/04 06:19:36;;;;;;;10.00;0.52;;;5.40;99.90;;;;;;4974631;28;20034;-64
2023/03/04 06:22:03;;;;;;;17.63;0.80;;;5.30;99.90;;;;;;5006006;28;20180;-64
2023/03/04 06:24:29;;;;;;;9.93;1.15;;;5.20;99.90;;;;;;5008018;28;20050;-66
2023/03/04 06:26:55;;;;;;;11.70;0.90;;;5.30;99.90;;;;;;5004573;28;20056;-65
2023/03/04 06:29:24;;;;;;;16.33;1.35;;;5.30;92.40;;;;;;4990469;28;20176;-64
2023/03/04 06:31:50;;;;;;;16.13;0.82;;;5.50;1.00;;;;;;4978869;28;20466;-63
2023/03/04 06:34:15;;;;;;;10.32;0.60;;;5.40;1.00;;;;;;4976716;28;20034;-64
2023/03/04 06:36:41;;;;;;;16.60;1.38;;;5.40;1.00;;;;;;4977942;28;20038;-64
2023/03/04 06:39:07;;;;;;;12.07;0.93;;;5.50;99.90;;;;;;4994232;28;20039;-64
2023/03/04 06:41:33;;;;;;;10.15;0.70;;;5.50;99.90;;;;;;5010798;28;20112;-63
2023/03/04 06:43:59;;;;;;;14.05;0.98;;;5.60;99.90;;;;;;4993482;28;20417;-63
2023/03/04 06:46:24;;;;;;;17.13;1.33;;;5.50;99.90;;;;;;4964023;28;20057;-62
2023/03/04 06:48:50;;;;;;;17.27;1.45;;;5.60;41.20;;;;;;4976995;28;20385;-63
2023/03/04 06:51:16;;;;;;;13.85;0.93;;;5.60;1.00;;;;;;4994491;28;20291;-63
2023/03/04 06:53:42;;;;;;;15.98;1.40;;;5.70;1.00;;;;;;4992273;28;20046;-64
2023/03/04 06:56:10;;;;;;;19.42;1.73;;;5.70;1.00;;;;;;4977908;28;20779;-65
2023/03/04 06:58:35;;;;;;;15.40;1.98;;;5.70;1.00;;;;;;4979682;28;20045;-64
2023/03/04 07:01:19;;;;;;;21.35;1.80;;;5.80;1.00;;;;;;5009806;28;20048;-63
2023/03/04 07:03:46;;;;;;;22.00;2.05;;;5.90;1.00;;;;;;4993308;28;20633;-64
2023/03/04 07:06:14;;;;;;;15.90;1.50;;;6.00;1.00;;;;;;4977622;28;20081;-63
2023/03/04 07:08:40;;;;;;;14.82;1.63;;;6.00;1.00;;;;;;4980659;28;20038;-63
2023/03/04 07:11:06;;;;;;;18.20;1.85;;;6.00;1.00;;;;;;4979577;28;20566;-62
2023/03/04 07:13:34;;;;;;;15.50;1.45;;;6.00;99.90;;;;;;4978217;28;20109;-64
2023/03/04 07:16:00;;;;;;;17.17;1.58;;;6.00;99.90;;;;;;4976954;28;20157;-64
2023/03/04 07:18:26;;;;;;;21.30;2.17;;;6.00;99.90;;;;;;4979406;28;20069;-65
2023/03/04 07:20:52;;;;;;;21.65;2.00;;;6.00;99.90;;;;;;4978057;28;20034;-64
2023/03/04 07:23:19;;;;;;;18.23;1.80;;;6.00;99.90;;;;;;4978636;28;20058;-64
2023/03/04 07:25:45;;;;;;;17.75;1.73;;;6.10;99.90;;;;;;4979749;28;20072;-63
2023/03/04 07:28:11;;;;;;;27.42;2.30;;;6.00;99.90;;;;;;5011391;28;20042;-64
2023/03/04 07:30:36;;;;;;;24.92;2.55;;;6.00;99.90;;;;;;4960588;28;20065;-64
2023/03/04 07:33:02;;;;;;;17.23;2.00;;;6.00;99.90;;;;;;4976464;28;20548;-63
2023/03/04 07:35:28;;;;;;;24.73;2.95;;;6.00;99.90;;;;;;4991217;28;20042;-64
2023/03/04 07:37:53;;;;;;;27.73;2.58;;;6.00;99.90;;;;;;4974766;28;20198;-64
2023/03/04 07:40:20;;;;;;;25.13;2.90;;;6.00;99.90;;;;;;4974009;28;20749;-63
2023/03/04 07:42:50;;;;;;;28.95;3.00;;;6.10;99.90;;;;;;4975769;28;20497;-63
2023/03/04 07:45:16;;;;;;;22.27;2.33;;;6.00;99.90;;;;;;5009112;28;20408;-63
2023/03/04 07:47:42;;;;;;;20.65;2.00;;;6.10;99.90;;;;;;5025901;28;20049;-64
2023/03/04 07:50:09;;;;;;;28.75;3.03;;;6.10;99.90;;;;;;5026159;28;20365;-63
2023/03/04 07:52:41;;;;;;;26.98;2.58;;;6.10;99.90;;;;;;5025826;28;20049;-63
2023/03/04 07:55:08;;;;;;;24.98;2.67;;;6.10;99.90;;;;;;5008463;28;20105;-64
2023/03/04 07:57:34;;;;;;;19.27;2.00;;;6.20;99.90;;;;;;5008088;28;20334;-63
2023/03/04 08:00:00;;;;;;;15.90;1.55;;;6.20;99.90;;;;;;4976300;28;20207;-63
2023/03/04 08:02:26;;;;;;;17.63;1.52;;;6.20;99.90;;;;;;4980991;28;20050;-64
2023/03/04 08:04:51;;;;;;;16.98;1.60;;;6.20;99.90;;;;;;4978937;28;20108;-64
2023/03/04 08:07:17;;;;;;;20.50;2.15;;;6.20;99.90;;;;;;4977753;28;20435;-63
2023/03/04 08:09:43;;;;;;;21.73;2.17;;;6.30;99.90;;;;;;4977613;28;20516;-64
2023/03/04 08:12:08;;;;;;;21.95;2.55;;;6.30;99.90;;;;;;4960995;28;20058;-65
2023/03/04 08:14:35;;;;;;;21.08;2.13;;;6.30;99.90;;;;;;4978999;28;20042;-64
2023/03/04 08:17:01;;;;;;;19.70;2.28;;;6.30;99.90;;;;;;4994450;28;20038;-63
2023/03/04 08:19:30;;;;;;;33.88;2.85;;;6.20;99.90;;;;;;4981642;28;20049;-64
2023/03/04 08:22:08;;;;;;;24.58;2.60;;;6.20;99.90;;;;;;4997165;28;20038;-65
2023/03/04 08:24:43;;;;;;;24.70;2.80;;;6.20;99.90;;;;;;4993744;28;20042;-64
2023/03/04 08:27:18;;;;;;;21.65;2.47;;;6.20;99.90;;;;;;4995106;28;20435;-64
2023/03/04 08:30:12;;;;;;;21.33;3.00;;;6.20;99.90;;;;;;4988308;28;20030;-65
2023/03/04 08:33:15;;;;;;;;;;;6.20;99.90;;;;;;5022456;28;20107;-63
2023/03/04 08:36:18;;;;;;;32.47;2.67;;;6.10;99.90;;;;;;5017283;28;20055;-64
2023/03/04 08:39:03;;;;;;;20.30;2.63;;;6.20;99.90;;;;;;5019694;28;20050;-63
2023/03/04 08:41:34;;;;;;;24.77;2.90;;;6.20;99.90;;;;;;4981603;28;20188;-65
2023/03/04 08:44:00;;;;;;;27.63;3.30;;;6.20;99.90;;;;;;5013565;28;20040;-63
2023/03/04 08:46:27;;;;;;;28.10;2.78;;;6.20;99.90;;;;;;5030402;28;20053;-64
2023/03/04 08:48:52;;;;;;;21.55;2.35;;;6.20;99.90;;;;;;5013512;28;20045;-64
2023/03/04 08:51:18;;;;;;;31.17;3.25;;;6.30;99.90;;;;;;4996584;28;20513;-63
2023/03/04 08:53:44;;;;;;;20.85;3.00;;;6.30;99.90;;;;;;5028914;28;20068;-64
2023/03/04 08:56:12;;;;;;;29.58;2.63;;;6.40;99.90;;;;;;5013250;28;20053;-65
2023/03/04 08:58:38;;;;;;;26.25;2.42;;;6.50;99.90;;;;;;4996348;28;20052;-64
2023/03/04 09:01:06;;;;;;;19.23;1.67;;;6.50;99.90;;;;;;5029885;28;20462;-65
2023/03/04 09:03:32;;;;;;;24.45;1.70;;;6.60;99.90;;;;;;5013400;28;20699;-63
2023/03/04 09:05:57;;;;;;;14.75;1.17;;;6.60;99.90;;;;;;4996317;28;20048;-63
2023/03/04 09:08:23;;;;;;;13.90;1.08;;;6.60;99.90;;;;;;5012770;28;20073;-63
2023/03/04 09:10:52;;;;;;;15.38;0.77;;;6.60;99.90;;;;;;5026652;28;20547;-62
2023/03/04 09:13:18;;;;;;;8.93;0.85;;;6.40;99.90;;;;;;5027337;28;20144;-63
2023/03/04 09:15:45;;;;;;;11.27;0.65;;;6.40;99.90;;;;;;5012464;28;20039;-63
2023/03/04 09:18:12;;;;;;;9.68;0.73;;;6.30;99.90;;;;;;5029549;28;20124;-64
2023/03/04 09:20:37;;;;;;;8.95;0.60;;;6.30;99.90;;;;;;5004669;28;20739;-63
2023/03/04 09:23:03;;;;;;;9.77;0.77;;;6.30;99.90;;;;;;4977535;28;20061;-64
2023/03/04 09:25:29;;;;;;;11.90;1.05;;;6.30;99.90;;;;;;4993624;28;20052;-64
2023/03/04 09:27:55;;;;;;;15.13;0.68;;;6.40;99.90;;;;;;5012288;28;20045;-63
2023/03/04 09:30:21;;;;;;;12.80;0.63;;;6.60;99.90;;;;;;5029524;28;20049;-64
2023/03/04 09:32:47;;;;;;;13.48;0.80;;;6.70;99.90;;;;;;4993703;28;20053;-63
2023/03/04 09:35:13;;;;;;;13.43;1.10;;;6.60;99.90;;;;;;5026643;28;20045;-64
2023/03/04 09:37:39;;;;;;;8.73;0.82;;;6.70;99.90;;;;;;4976855;28;20787;-64
2023/03/04 09:40:07;;;;;;;12.77;0.95;;;6.90;99.90;;;;;;5009753;28;20041;-64
2023/03/04 09:42:36;;;;;;;12.60;0.98;;;7.40;99.90;;;;;;4980412;28;20138;-65
2023/03/04 09:45:06;;;;;;;14.27;1.15;;;7.40;99.90;;;;;;4988593;28;20093;-63
2023/03/04 09:47:35;;;;;;;14.43;1.30;;;7.40;99.90;;;;;;4989077;28;20477;-63
2023/03/04 09:50:05;;;;;;;14.73;1.35;;;7.20;99.90;;;;;;5007462;28;20049;-63
2023/03/04 09:52:41;;;;;;;23.10;2.03;;;6.90;99.90;;;;;;4992164;28;20272;-63
2023/03/04 09:55:21;;;;;;;14.52;1.65;;;6.80;99.90;;;;;;4991571;28;20223;-64
2023/03/04 09:57:53;;;;;;;21.33;2.15;;;6.60;99.90;;;;;;4990739;28;20049;-63
2023/03/04 10:00:41;;;;;;;22.00;2.30;;;6.60;99.90;;;;;;4990576;28;20030;-63
2023/03/04 10:03:08;;;;;;;17.92;1.77;;;6.60;99.90;;;;;;4993157;28;20281;-65
2023/03/04 10:05:41;;;;;;;15.68;2.42;;;6.70;99.90;;;;;;4995127;28;20049;-63
2023/03/04 10:08:25;;;;;;;18.20;2.30;;;6.70;99.90;;;;;;5009195;28;20713;-63
2023/03/04 10:10:53;;;;;;;20.83;2.10;;;6.70;99.90;;;;;;5011823;28;20363;-63
2023/03/04 10:13:30;;;;;;;19.75;2.22;;;6.80;99.90;;;;;;4995410;28;20784;-64
2023/03/04 10:16:00;;;;;;;18.52;2.53;;;6.80;99.90;;;;;;4994949;28;20042;-64
2023/03/04 10:18:36;;;;;;;16.67;1.42;;;6.80;99.90;;;;;;4996251;28;20162;-63
2023/03/04 10:21:15;;;;;;;20.08;2.20;;;6.90;99.90;;;;;;5011633;28;20415;-64
2023/03/04 10:23:41;;;;;;;14.98;1.30;;;6.80;99.90;;;;;;4994607;28;20054;-63
2023/03/04 10:26:13;;;;;;;22.02;1.98;;;6.80;99.90;;;;;;5011568;28;20730;-64
2023/03/04 10:28:39;;;;;;;22.92;1.83;;;6.60;99.90;;;;;;4978014;28;20042;-64
2023/03/04 10:31:14;;;;;;;18.38;1.75;;;6.50;99.90;;;;;;5010807;28;20771;-64
2023/03/04 10:33:40;;;;;;;21.08;2.20;;;6.40;99.90;;;;;;5010949;28;20278;-63
2023/03/04 10:36:14;;;;;;;19.63;2.33;;;6.40;99.90;;;;;;4996558;28;20104;-63
2023/03/04 10:38:41;;;;;;;18.48;1.98;;;6.40;99.90;;;;;;5011331;28;20562;-63
2023/03/04 10:41:16;;;;;;;17.90;2.63;;;6.80;99.90;;;;;;5011668;28;20046;-63
2023/03/04 10:43:45;;;;;;;18.52;2.00;;;7.10;99.90;;;;;;5011615;28;20053;-62
2023/03/04 10:46:12;;;;;;;19.20;2.15;;;7.30;99.90;;;;;;5011415;28;20058;-63
2023/03/04 10:48:42;;;;;;;15.65;1.45;;;7.00;99.90;;;;;;4994885;28;20056;-64
2023/03/04 10:51:27;;;;;;;11.98;1.50;;;6.90;99.90;;;;;;4996211;28;20404;-63
2023/03/04 10:53:59;;;;;;;12.57;1.35;;;6.70;99.90;;;;;;4996004;28;20042;-65
2023/03/04 10:56:44;;;;;;;14.95;1.92;;;7.00;99.90;;;;;;4994957;28;20466;-63
2023/03/04 10:59:37;;;;;;;19.58;2.55;;;7.70;99.90;;;;;;4983944;28;20046;-63
2023/03/04 11:02:23;;;;;;;22.08;2.33;;;8.50;99.90;;;;;;4995853;28;20299;-63
2023/03/04 11:05:10;;;;;;;25.02;2.97;;;8.40;99.90;;;;;;5011314;28;20202;-63
2023/03/04 11:07:39;;;;;;;18.83;1.83;;;8.00;99.90;;;;;;4995493;28;20084;-63
2023/03/04 11:10:14;;;;;;;26.30;2.63;;;7.50;99.90;;;;;;4994514;28;20049;-63
2023/03/04 11:12:40;;;;;;;18.98;2.15;;;7.10;99.90;;;;;;4991759;28;20129;-63
2023/03/04 11:15:26;;;;;;;19.83;1.17;;;7.20;99.90;;;;;;4977345;28;20038;-63
2023/03/04 11:17:59;;;;;;;13.98;2.00;;;8.00;99.90;;;;;;5010910;28;20049;-63
2023/03/04 11:20:41;;;;;;;15.90;1.80;;;8.60;99.90;;;;;;4995855;28;20506;-62
2023/03/04 11:23:23;;;;;;;13.95;1.63;;;8.20;99.90;;;;;;4983929;28;20278;-64
2023/03/04 11:26:17;;;;;;;12.95;1.27;;;7.80;99.90;;;;;;5010530;28;20254;-64
2023/03/04 11:28:49;;;;;;;12.80;1.48;;;7.50;99.90;;;;;;4995435;28;20042;-62
2023/03/04 11:31:20;;;;;;;17.63;1.90;;;7.10;99.90;;;;;;4993830;28;20468;-63
2023/03/04 11:34:09;;;;;;;16.45;1.75;;;7.00;99.90;;;;;;4994479;28;20566;-62
2023/03/04 11:36:53;;;;;;;15.35;1.65;;;7.10;99.90;;;;;;4973918;28;20049;-63
2023/03/04 11:39:25;;;;;;;16.52;1.63;;;7.50;99.90;;;;;;4994498;28;20050;-64
2023/03/04 11:42:00;;;;;;;13.57;1.58;;;7.90;99.90;;;;;;5010226;28;20041;-64
2023/03/04 11:44:25;;;;;;;22.13;2.45;;;8.70;99.90;;;;;;4995619;28;20034;-64
2023/03/04 11:47:14;;;;;;;18.27;2.65;;;9.20;99.90;;;;;;4993115;28;20103;-64
2023/03/04 11:49:46;;;;;;;23.88;3.03;;;9.40;99.90;;;;;;4994880;28;20050;-63
2023/03/04 11:52:30;;;;;;;21.02;2.38;;;9.40;99.90;;;;;;4995284;28;20045;-64
2023/03/04 11:55:08;;;;;;;21.02;2.75;;;9.50;99.90;;;;;;5009831;28;20440;-65
2023/03/04 11:57:39;;;;;;;21.90;2.80;;;10.30;99.90;;;;;;4993077;28;20048;-65
2023/03/04 12:00:34;;;;;;;24.20;2.55;;;9.90;99.90;;;;;;5006221;28;20309;-64
2023/03/04 12:03:18;;;;;;;22.77;2.67;;;8.50;99.90;;;;;;5008307;28;20597;-63
2023/03/04 12:06:03;;;;;;;22.27;2.65;;;8.00;99.90;;;;;;4993531;28;20495;-64
2023/03/04 12:08:43;;;;;;;18.02;2.08;;;7.50;99.90;;;;;;5008846;28;20528;-65
2023/03/04 12:11:26;;;;;;;16.95;1.58;;;6.90;99.90;;;;;;4993070;28;20049;-65
2023/03/04 12:14:11;;;;;;;;;;;6.80;99.90;;;;;;4994335;28;20125;-65
2023/03/04 12:17:05;;;;;;;16.48;1.80;;;6.80;99.90;;;;;;5002102;28;20316;-63
2023/03/04 12:19:43;;;;;;;17.30;2.10;;;7.30;99.90;;;;;;4978031;28;20097;-65
2023/03/04 12:22:34;;;;;;;20.30;2.63;;;8.50;99.90;;;;;;4998522;28;20053;-64
2023/03/04 12:25:22;;;;;;;21.70;2.35;;;9.50;99.90;;;;;;4991568;28;20321;-65
2023/03/04 12:28:07;;;;;;;13.52;1.45;;;10.00;99.90;;;;;;4976970;28;20042;-64
2023/03/04 12:30:48;;;;;;;16.17;1.63;;;9.60;99.90;;;;;;4974706;28;20260;-64
2023/03/04 12:33:26;;;;;;;19.35;2.30;;;8.80;99.90;;;;;;4977451;28;20096;-64
2023/03/04 12:36:23;;;;;;;22.17;2.38;;;8.50;99.90;;;;;;4975563;28;20399;-64
2023/03/04 12:38:55;;;;;;;16.25;2.50;;;8.50;99.90;;;;;;4972406;28;20099;-64
2023/03/04 12:41:27;;;;;;;19.88;2.38;;;8.40;99.90;;;;;;4977746;28;20396;-64
2023/03/04 12:44:21;;;;;;;24.95;3.65;;;8.30;99.90;;;;;;4994433;28;20049;-64
2023/03/04 12:46:53;;;;;;;24.63;2.42;;;8.20;99.90;;;;;;4958319;28;20043;-63
2023/03/04 12:49:33;;;;;;;19.77;2.45;;;8.10;99.90;;;;;;5007010;28;20046;-65
2023/03/04 12:52:05;;;;;;;16.77;2.72;;;8.10;99.90;;;;;;4976204;28;20419;-64
2023/03/04 12:54:38;;;;;;;20.17;2.78;;;8.00;99.90;;;;;;4977094;28;20579;-64
2023/03/04 12:57:11;;;;;;;19.80;2.50;;;7.70;99.90;;;;;;4976459;28;20049;-62
2023/03/04 12:59:43;;;;;;;17.70;2.20;;;7.50;99.90;;;;;;4992011;28;20389;-64
2023/03/04 13:02:24;;;;;;;22.50;2.15;;;7.10;99.90;;;;;;4988790;28;20673;-64
2023/03/04 13:05:23;;;;;;;18.92;2.47;;;6.90;99.90;;;;;;4992746;28;20038;-64